Other Surface Observations
Issued by NWS Missoula, MT

Home | Current Version | Previous Version | Text Only | Print | Product List | Glossary On
Versions: 1 2 3 4 5 6 7 8 9 10 11 12 13 14 15 16 17 18 19 20 21 22 23 24 25 26 27 28 29 30 31 32 33 34 35 36 37 38 39 40 41 42 43 44 45 46 47 48 49 50
187
SXUS55 KMSO 280223
OSOMSO
MONTANA AWOS SUMMARY
NATIONAL WEATHER SERVICE MISSOULA MT
823 PM MDT SAT AUG 27 2016

Montana AWOS Reports

LAUREL      |K6S8 280215Z AUTO 00000KT 25SM 22/02 A2984 RMK AO1 T02220022
TWIN BRIDGES|K7S1 280215Z AUTO 00000KT 40SM 23/00 A2991 RMK AO1 T02280000
ROUNDUP     |KRPX 280215Z AUTO 16004KT 40SM 26/M01 A2975 RMK AO1 T02611010




USA.gov is the U.S. government's official web portal to all federal, state and local government web resources and services.